Time;durP1;ratioP1;P1;durP2;ratioP2;P2;SDS_P1;SDS_P2;PMS_P1;PMS_P2;Temp;Humidity;BMP_temperature;BMP_pressure;BME280_temperature;BME280_humidity;BME280_pressure;Samples;Min_cycle;Max_cycle;Signal;HPM_P1;HPM_P2
2021/05/25 00:02:23;;;;;;;2.47;1.90;;;;;;;9.21;80.13;100871.56;5136632;27;20510;-40
2021/05/25 00:04:49;;;;;;;4.30;1.70;;;;;;;9.11;80.95;100879.31;5136312;27;20042;-40
2021/05/25 00:07:14;;;;;;;3.47;1.60;;;;;;;9.05;80.40;100881.03;5135896;27;20316;-40
2021/05/25 00:09:40;;;;;;;4.40;1.70;;;;;;;9.05;81.60;100878.34;5135935;27;20387;-40
2021/05/25 00:12:05;;;;;;;3.33;1.45;;;;;;;9.02;80.64;100879.59;5136068;27;20027;-40
2021/05/25 00:14:31;;;;;;;2.13;1.42;;;;;;;9.03;80.89;100881.25;5136300;27;20023;-40
2021/05/25 00:16:56;;;;;;;2.37;1.70;;;;;;;8.98;81.11;100874.88;5135829;27;20065;-40
2021/05/25 00:19:22;;;;;;;4.87;1.70;;;;;;;8.91;80.67;100877.59;5136314;27;20352;-40
2021/05/25 00:21:48;;;;;;;4.40;1.50;;;;;;;8.90;80.73;100875.97;5135877;27;20300;-40
2021/05/25 00:24:14;;;;;;;3.22;1.73;;;;;;;8.83;80.76;100875.16;5135364;27;20030;-40
2021/05/25 00:26:40;;;;;;;2.42;1.40;;;;;;;8.81;80.71;100877.28;5134836;27;20042;-40
2021/05/25 00:29:05;;;;;;;2.20;1.20;;;;;;;8.81;80.80;100879.97;5135829;27;20035;-40
2021/05/25 00:31:31;;;;;;;1.40;1.00;;;;;;;8.79;80.37;100882.06;5135476;27;20052;-40
2021/05/25 00:33:56;;;;;;;3.27;1.53;;;;;;;8.76;80.44;100882.50;5136264;27;20027;-40
2021/05/25 00:36:24;;;;;;;2.00;1.10;;;;;;;8.67;80.32;100875.72;5135753;27;20390;-40
2021/05/25 00:38:49;;;;;;;1.98;1.30;;;;;;;8.65;80.64;100888.59;5135294;27;20114;-40
2021/05/25 00:41:14;;;;;;;2.40;1.37;;;;;;;8.61;80.68;100887.38;5135091;27;20518;-40
2021/05/25 00:43:40;;;;;;;2.80;1.30;;;;;;;8.56;80.72;100887.19;5135271;27;20451;-40
2021/05/25 00:46:05;;;;;;;2.70;1.20;;;;;;;8.47;80.84;100883.91;5135250;27;20035;-40
2021/05/25 00:48:31;;;;;;;2.27;1.07;;;;;;;8.49;81.43;100888.06;5135035;27;20023;-40
2021/05/25 00:50:57;;;;;;;3.20;1.30;;;;;;;8.49;81.03;100889.91;5135138;27;20076;-40
2021/05/25 00:53:22;;;;;;;4.22;1.67;;;;;;;8.45;81.41;100894.09;5135227;27;20625;-40
2021/05/25 00:55:48;;;;;;;3.15;1.70;;;;;;;8.38;81.43;100898.69;5135251;27;20029;-40
2021/05/25 00:58:14;;;;;;;2.70;1.42;;;;;;;8.34;81.07;100900.94;5134992;27;20469;-40
2021/05/25 01:00:42;;;;;;;3.60;1.60;;;;;;;8.25;80.72;100902.25;5135244;27;20365;-40
2021/05/25 01:03:09;;;;;;;2.45;1.40;;;;;;;8.19;81.40;100900.38;5133658;27;20117;-40
2021/05/25 01:05:35;;;;;;;3.20;1.70;;;;;;;8.17;81.12;100899.78;5134774;27;20030;-40
2021/05/25 01:08:00;;;;;;;4.22;1.98;;;;;;;8.07;82.22;100902.13;5134753;27;20084;-40
2021/05/25 01:10:30;;;;;;;3.93;2.00;;;;;;;8.07;82.21;100899.41;5134736;27;20035;-40
2021/05/25 01:13:00;;;;;;;3.45;1.55;;;;;;;7.97;81.68;100897.19;5135187;27;20023;-40
2021/05/25 01:15:26;;;;;;;5.43;1.63;;;;;;;7.96;81.77;100896.34;5134901;27;20023;-40
2021/05/25 01:17:52;;;;;;;4.97;1.80;;;;;;;7.92;81.92;100897.81;5134298;27;20133;-40
2021/05/25 01:20:20;;;;;;;2.45;1.40;;;;;;;7.86;82.63;100889.75;5134608;27;20038;-40
2021/05/25 01:22:45;;;;;;;3.13;1.90;;;;;;;7.87;82.19;100899.50;5134800;27;20510;-40
2021/05/25 01:25:13;;;;;;;2.53;1.70;;;;;;;7.93;82.27;100899.47;5134555;27;20035;-40
2021/05/25 01:27:39;;;;;;;4.60;1.70;;;;;;;7.84;82.31;100903.41;5134230;27;20532;-40
2021/05/25 01:30:08;;;;;;;3.75;2.20;;;;;;;7.85;82.64;100905.06;5134367;27;20031;-40
2021/05/25 01:32:34;;;;;;;3.50;2.10;;;;;;;7.84;82.42;100913.34;5134043;27;20023;-40
2021/05/25 01:34:59;;;;;;;3.88;1.90;;;;;;;7.79;82.25;100897.00;5134670;27;20023;-40
2021/05/25 01:37:25;;;;;;;4.50;2.15;;;;;;;7.73;81.73;100906.75;5133682;27;20023;-40
2021/05/25 01:39:53;;;;;;;3.38;1.92;;;;;;;7.72;82.30;100905.94;5133777;27;20068;-40
2021/05/25 01:42:19;;;;;;;5.15;2.25;;;;;;;7.62;82.03;100910.94;5134538;27;20083;-40
2021/05/25 01:44:44;;;;;;;4.38;1.67;;;;;;;7.64;82.53;100910.72;5134795;27;20447;-40
2021/05/25 01:47:10;;;;;;;3.03;1.70;;;;;;;7.62;83.12;100913.63;5134638;27;20135;-40
2021/05/25 01:49:35;;;;;;;4.33;2.07;;;;;;;7.62;82.79;100910.09;5134300;27;20019;-40
2021/05/25 01:52:01;;;;;;;3.13;1.80;;;;;;;7.53;82.39;100903.28;5133778;27;20027;-41
2021/05/25 01:54:26;;;;;;;3.45;1.95;;;;;;;7.51;82.68;100908.03;5134499;27;20051;-40
2021/05/25 01:56:51;;;;;;;3.57;1.77;;;;;;;7.51;82.33;100913.41;5134130;27;20111;-40
2021/05/25 01:59:17;;;;;;;3.97;1.73;;;;;;;7.51;82.27;100918.81;5134443;27;20031;-40
2021/05/25 02:01:42;;;;;;;4.60;1.90;;;;;;;7.54;82.51;100918.38;5133804;27;20023;-40
2021/05/25 02:04:07;;;;;;;3.43;1.87;;;;;;;7.52;82.43;100920.47;5134876;27;20027;-40
2021/05/25 02:06:33;;;;;;;4.53;2.23;;;;;;;7.51;83.04;100910.72;5134271;27;20106;-40
2021/05/25 02:08:58;;;;;;;3.47;1.85;;;;;;;7.49;83.29;100919.00;5134305;27;20114;-40
2021/05/25 02:11:24;;;;;;;6.90;1.70;;;;;;;7.53;83.20;100922.94;5134075;27;20035;-40
2021/05/25 02:13:50;;;;;;;4.68;1.90;;;;;;;7.54;83.04;100918.38;5133797;27;20023;-40
2021/05/25 02:16:17;;;;;;;4.30;1.83;;;;;;;7.65;83.08;100918.56;5134311;27;20474;-40
2021/05/25 02:18:46;;;;;;;2.60;1.70;;;;;;;7.61;83.46;100921.88;5134115;27;20051;-40
2021/05/25 02:21:15;;;;;;;3.90;2.10;;;;;;;7.61;82.52;100919.19;5133851;27;20390;-41
2021/05/25 02:23:40;;;;;;;5.07;2.13;;;;;;;7.65;83.48;100923.13;5134149;27;20037;-40
2021/05/25 02:26:06;;;;;;;2.78;1.80;;;;;;;7.68;83.18;100922.72;5133587;27;20445;-40
2021/05/25 02:28:32;;;;;;;6.93;2.30;;;;;;;7.66;83.54;100920.25;5133748;27;20034;-40
2021/05/25 02:30:58;;;;;;;4.55;1.90;;;;;;;7.62;83.38;100918.19;5134635;27;20027;-40
2021/05/25 02:33:25;;;;;;;2.28;1.75;;;;;;;7.64;83.32;100921.47;5132572;28;20114;-40
2021/05/25 02:35:53;;;;;;;3.60;1.70;;;;;;;7.65;83.73;100923.13;5133782;27;20106;-40
2021/05/25 02:38:18;;;;;;;3.72;2.03;;;;;;;7.65;83.38;100921.25;5133696;27;20063;-40
2021/05/25 02:40:46;;;;;;;3.30;1.70;;;;;;;7.67;82.98;100929.97;5134333;27;20027;-40
2021/05/25 02:43:14;;;;;;;4.15;2.10;;;;;;;7.74;83.97;100930.78;5133532;27;20023;-40
2021/05/25 02:45:40;;;;;;;4.68;1.83;;;;;;;7.72;83.02;100926.66;5133988;27;20122;-40
2021/05/25 02:48:06;;;;;;;4.70;2.28;;;;;;;7.72;83.30;100926.66;5133872;27;20439;-40
2021/05/25 02:50:33;;;;;;;3.50;1.80;;;;;;;7.74;83.00;100930.78;5136717;27;20023;-41
2021/05/25 02:52:58;;;;;;;4.00;2.00;;;;;;;7.76;82.84;100938.66;5137361;27;20039;-40
2021/05/25 02:55:27;;;;;;;3.35;1.92;;;;;;;7.75;83.04;100928.91;5137467;27;20073;-40
2021/05/25 02:57:53;;;;;;;3.88;1.50;;;;;;;7.75;83.19;100923.53;5137521;27;20114;-40
2021/05/25 03:00:26;;;;;;;3.22;1.60;;;;;;;7.78;83.37;100931.19;5137475;27;20571;-40
2021/05/25 03:02:52;;;;;;;4.28;1.65;;;;;;;7.80;82.72;100933.66;5137242;27;20027;-40
2021/05/25 03:05:22;;;;;;;2.63;1.65;;;;;;;7.72;82.48;100937.41;5137191;27;20360;-40
2021/05/25 03:07:48;;;;;;;3.45;1.50;;;;;;;7.66;83.47;100933.72;5137836;27;20102;-40
2021/05/25 03:10:15;;;;;;;3.28;1.38;;;;;;;7.74;82.49;100938.03;5136790;27;20485;-40
2021/05/25 03:12:42;;;;;;;2.65;1.60;;;;;;;7.73;82.82;100939.06;5137040;27;20047;-40
2021/05/25 03:15:10;;;;;;;3.80;1.40;;;;;;;7.82;82.79;100942.38;5136694;27;20037;-40
2021/05/25 03:17:36;;;;;;;3.75;1.70;;;;;;;7.85;83.09;100942.75;5136584;27;20038;-40
2021/05/25 03:20:03;;;;;;;3.10;1.48;;;;;;;7.84;82.75;100941.09;5137141;27;20031;-40
2021/05/25 03:22:29;;;;;;;3.53;1.50;;;;;;;7.88;83.03;100942.34;5137060;27;20371;-40
2021/05/25 03:24:54;;;;;;;5.40;1.77;;;;;;;7.89;82.80;100937.78;5137575;27;20034;-40
2021/05/25 03:27:19;;;;;;;3.17;1.93;;;;;;;7.89;82.31;100949.38;5136912;27;20035;-40
2021/05/25 03:29:45;;;;;;;2.47;1.43;;;;;;;7.89;82.38;100943.16;5137043;27;20023;-40
2021/05/25 03:32:10;;;;;;;2.57;1.30;;;;;;;7.95;82.64;100937.78;5136681;27;20110;-40
2021/05/25 03:34:36;;;;;;;2.40;1.30;;;;;;;7.93;82.48;100933.63;5137445;27;20118;-40
2021/05/25 03:37:01;;;;;;;3.60;1.63;;;;;;;7.93;83.19;100950.63;5136600;27;20027;-40
2021/05/25 03:39:27;;;;;;;2.80;1.57;;;;;;;7.96;82.92;100950.22;5137328;27;20027;-40
2021/05/25 03:41:54;;;;;;;3.50;1.50;;;;;;;7.98;82.66;100950.00;5136976;27;20395;-40
2021/05/25 03:44:19;;;;;;;4.40;1.60;;;;;;;7.92;82.47;100946.28;5136135;27;20023;-40
2021/05/25 03:46:44;;;;;;;1.93;1.47;;;;;;;7.96;82.27;100960.97;5136296;27;20031;-40
2021/05/25 03:49:10;;;;;;;2.83;1.83;;;;;;;7.85;81.97;100952.69;5136914;27;20110;-40
2021/05/25 03:51:36;;;;;;;2.70;1.60;;;;;;;7.91;82.25;100955.41;5136588;27;20064;-40
2021/05/25 03:54:09;;;;;;;2.97;1.48;;;;;;;7.95;82.94;100953.94;5137211;27;20700;-40
2021/05/25 03:56:47;;;;;;;2.97;1.50;;;;;;;7.83;82.90;100952.09;5136187;27;20039;-40
2021/05/25 03:59:13;;;;;;;5.28;1.70;;;;;;;7.75;83.45;100959.34;5136207;27;20051;-40
2021/05/25 04:01:38;;;;;;;3.27;1.73;;;;;;;7.79;82.88;100954.38;5135715;27;20054;-40
2021/05/25 04:04:04;;;;;;;3.87;1.90;;;;;;;7.74;82.73;100952.31;5136061;27;20079;-40
2021/05/25 04:06:29;;;;;;;3.67;1.80;;;;;;;7.73;82.95;100949.84;5135940;27;20019;-40
2021/05/25 04:08:55;;;;;;;2.93;1.53;;;;;;;7.70;83.51;100953.75;5135648;27;20097;-40
2021/05/25 04:11:20;;;;;;;4.40;1.53;;;;;;;7.75;83.34;100955.81;5135933;27;20030;-40
2021/05/25 04:13:46;;;;;;;1.93;1.33;;;;;;;7.70;83.16;100956.44;5135749;27;20023;-40
2021/05/25 04:16:13;;;;;;;2.22;1.60;;;;;;;7.72;83.49;100956.25;5135900;27;20079;-40
2021/05/25 04:18:39;;;;;;;2.38;1.50;;;;;;;7.77;83.34;100958.31;5135703;27;20031;-40
2021/05/25 04:21:05;;;;;;;4.85;1.70;;;;;;;7.81;83.53;100962.22;5135668;27;20027;-40
2021/05/25 04:23:31;;;;;;;3.07;1.57;;;;;;;7.90;83.97;100961.78;5134424;27;20033;-40
2021/05/25 04:25:57;;;;;;;3.95;1.80;;;;;;;7.89;84.09;100957.47;5135346;27;20261;-40
2021/05/25 04:28:23;;;;;;;3.88;2.03;;;;;;;7.92;83.42;100958.91;5135417;27;20034;-40
2021/05/25 04:30:48;;;;;;;3.38;1.70;;;;;;;7.92;83.80;100958.91;5134966;27;20043;-40
2021/05/25 04:33:13;;;;;;;3.23;1.60;;;;;;;8.00;83.34;100962.22;5135474;27;20031;-40
2021/05/25 04:35:39;;;;;;;4.03;2.27;;;;;;;7.94;83.44;100967.59;5135199;27;20069;-40
2021/05/25 04:38:05;;;;;;;2.28;1.73;;;;;;;8.00;83.33;100967.59;5135339;27;20039;-40
2021/05/25 04:40:32;;;;;;;2.75;1.63;;;;;;;7.98;83.80;100974.22;5135046;27;20019;-40
2021/05/25 04:42:59;;;;;;;3.08;1.70;;;;;;;8.06;83.16;100976.69;5135466;27;20023;-40
2021/05/25 04:45:25;;;;;;;3.88;1.90;;;;;;;8.06;83.77;100981.25;5135808;27;20455;-40
2021/05/25 04:47:50;;;;;;;3.10;1.92;;;;;;;8.05;83.83;100975.03;5135108;27;20118;-40
2021/05/25 04:50:18;;;;;;;4.13;2.10;;;;;;;8.01;84.10;100973.81;5134871;27;20114;-40
2021/05/25 04:52:43;;;;;;;3.30;2.03;;;;;;;8.04;83.76;100978.75;5134916;27;20473;-40
2021/05/25 04:55:12;;;;;;;9.35;3.72;;;;;;;8.11;83.07;100981.44;5135324;27;20118;-40
2021/05/25 04:57:38;;;;;;;4.57;2.35;;;;;;;8.22;82.41;100976.22;5135197;27;20031;-40
2021/05/25 05:00:09;;;;;;;3.30;2.33;;;;;;;8.22;83.07;100984.31;5134759;27;20023;-40
2021/05/25 05:02:34;;;;;;;6.10;2.25;;;;;;;8.29;83.21;100986.16;5134890;27;20038;-40
2021/05/25 05:05:00;;;;;;;4.40;2.40;;;;;;;8.33;83.37;100985.50;5135256;27;20072;-40
2021/05/25 05:07:25;;;;;;;4.18;2.50;;;;;;;8.41;82.81;100987.19;5134423;27;20023;-40
2021/05/25 05:09:50;;;;;;;5.97;2.73;;;;;;;8.42;82.83;100991.53;5135273;27;20030;-40
2021/05/25 05:12:16;;;;;;;4.70;2.73;;;;;;;8.43;83.06;100983.22;5134104;27;20431;-40
2021/05/25 05:14:41;;;;;;;4.00;2.67;;;;;;;8.44;81.88;100982.22;5133098;27;20048;-40
2021/05/25 05:17:06;;;;;;;4.10;2.70;;;;;;;8.52;82.11;100997.28;5134793;27;20386;-40
2021/05/25 05:19:32;;;;;;;4.17;2.97;;;;;;;8.57;83.05;100993.97;5134466;27;20019;-40
2021/05/25 05:21:58;;;;;;;4.40;2.83;;;;;;;8.63;83.08;100993.09;5134467;27;20118;-40
2021/05/25 05:24:23;;;;;;;3.33;2.83;;;;;;;8.72;82.26;100991.81;5134431;27;20050;-40
2021/05/25 05:26:48;;;;;;;4.33;3.13;;;;;;;8.79;83.11;100991.78;5134289;27;20451;-40
2021/05/25 05:29:14;;;;;;;6.57;3.20;;;;;;;8.85;82.15;100994.44;5134654;27;20099;-40
2021/05/25 05:31:39;;;;;;;5.50;3.57;;;;;;;8.97;82.71;100994.56;5134522;27;20047;-40
2021/05/25 05:34:05;;;;;;;4.18;3.63;;;;;;;9.03;82.47;100994.56;5134458;27;20023;-40
2021/05/25 05:36:30;;;;;;;6.07;3.33;;;;;;;9.05;82.01;101004.28;5134513;27;20031;-40
2021/05/25 05:38:56;;;;;;;4.82;3.05;;;;;;;9.02;81.59;101008.22;5134319;27;20454;-40
2021/05/25 05:41:21;;;;;;;3.90;3.47;;;;;;;8.95;80.90;101007.47;5134379;27;20466;-40
2021/05/25 05:43:47;;;;;;;5.13;3.33;;;;;;;8.97;80.68;101011.59;5135084;27;20055;-40
2021/05/25 05:46:16;;;;;;;4.80;3.53;;;;;;;8.97;81.23;101016.16;5135170;27;20031;-40
2021/05/25 05:48:41;;;;;;;5.18;3.85;;;;;;;8.90;79.79;101018.91;5134455;27;20029;-40
2021/05/25 05:51:07;;;;;;;5.25;4.63;;;;;;;8.89;81.04;101025.34;5134285;27;20031;-40
2021/05/25 05:53:33;;;;;;;5.43;4.93;;;;;;;8.91;79.78;101017.03;5134933;27;20055;-40
2021/05/25 05:55:58;;;;;;;5.82;4.70;;;;;;;8.87;79.97;101018.50;5134293;27;20079;-40
2021/05/25 05:58:24;;;;;;;5.43;4.30;;;;;;;8.91;80.36;101031.34;5134190;27;20072;-40
2021/05/25 06:00:49;;;;;;;6.57;4.80;;;;;;;8.86;80.34;101025.75;5134780;27;20416;-40
2021/05/25 06:03:15;;;;;;;4.77;4.23;;;;;;;8.85;79.92;101018.72;5134116;27;20031;-39
2021/05/25 06:05:40;;;;;;;4.80;4.33;;;;;;;8.84;81.16;101027.03;5134178;27;20085;-40
2021/05/25 06:08:07;;;;;;;5.20;4.20;;;;;;;8.85;79.42;101025.97;5133820;27;20171;-40
2021/05/25 06:10:35;;;;;;;5.80;5.20;;;;;;;8.87;80.27;101021.19;5134451;27;20116;-40
2021/05/25 06:13:00;;;;;;;6.03;5.20;;;;;;;8.95;80.21;101035.25;5133766;27;20028;-40
2021/05/25 06:15:26;;;;;;;5.75;5.10;;;;;;;9.03;79.60;101037.72;5134030;27;20370;-40
2021/05/25 06:17:52;;;;;;;5.80;5.15;;;;;;;9.16;79.52;101030.56;5133250;28;20043;-40
2021/05/25 06:20:18;;;;;;;7.60;5.82;;;;;;;9.33;78.36;101033.59;5134088;27;20436;-40
2021/05/25 06:22:44;;;;;;;6.93;5.43;;;;;;;9.48;78.39;101029.53;5134297;27;20027;-40
2021/05/25 06:25:11;;;;;;;6.53;5.82;;;;;;;9.58;78.86;101033.63;5136939;27;20031;-40
2021/05/25 06:27:36;;;;;;;8.45;5.45;;;;;;;9.63;77.95;101042.69;5138358;27;20028;-40
2021/05/25 06:30:04;;;;;;;5.50;5.00;;;;;;;9.74;78.11;101039.28;5138157;27;20037;-40
2021/05/25 06:32:30;;;;;;;4.22;3.83;;;;;;;9.91;77.56;101050.38;5137807;27;20034;-40
2021/05/25 06:34:55;;;;;;;4.97;3.50;;;;;;;9.97;76.61;101049.47;5138112;27;20398;-40
2021/05/25 06:37:20;;;;;;;4.73;3.37;;;;;;;10.02;76.34;101041.53;5138079;27;20023;-40
2021/05/25 06:39:46;;;;;;;3.20;2.53;;;;;;;10.12;76.13;101045.59;5137748;27;20024;-40
2021/05/25 06:42:11;;;;;;;6.03;3.03;;;;;;;10.09;75.77;101048.75;5137644;27;20394;-40
2021/05/25 06:44:37;;;;;;;4.20;2.88;;;;;;;10.04;75.73;101050.22;5137901;27;20455;-40
2021/05/25 06:47:02;;;;;;;3.60;2.67;;;;;;;10.13;77.47;101052.66;5137911;27;20371;-40
2021/05/25 06:49:27;;;;;;;3.53;2.77;;;;;;;10.25;76.72;101059.03;5137389;27;20062;-40
2021/05/25 06:51:53;;;;;;;3.07;2.80;;;;;;;10.42;75.43;101056.53;5137724;27;20477;-40
2021/05/25 06:54:19;;;;;;;3.92;2.72;;;;;;;10.46;76.17;101058.56;5137170;27;20044;-40
2021/05/25 06:56:44;;;;;;;5.10;3.73;;;;;;;10.59;76.25;101079.25;5137108;27;20066;-40
2021/05/25 06:59:10;;;;;;;3.13;2.80;;;;;;;10.71;76.01;101077.44;5137971;27;20019;-40
2021/05/25 07:01:35;;;;;;;3.47;2.95;;;;;;;10.83;75.97;101082.88;5137607;27;20462;-40
2021/05/25 07:04:01;;;;;;;3.40;2.93;;;;;;;10.85;74.76;101078.09;5137812;27;20046;-40
2021/05/25 07:06:26;;;;;;;3.20;2.50;;;;;;;10.87;74.86;101078.69;5137841;27;20781;-40
2021/05/25 07:08:52;;;;;;;4.43;2.50;;;;;;;10.85;74.63;101082.69;5136855;27;20027;-40
2021/05/25 07:11:17;;;;;;;2.85;2.58;;;;;;;10.77;74.94;101081.09;5135528;27;20045;-40
2021/05/25 07:13:43;;;;;;;4.68;2.70;;;;;;;10.67;74.59;101097.03;5137605;27;20469;-40
2021/05/25 07:16:10;;;;;;;3.63;2.42;;;;;;;10.65;74.93;101091.84;5136847;27;20066;-40
2021/05/25 07:18:35;;;;;;;3.83;2.47;;;;;;;10.71;74.29;101096.34;5136662;27;20030;-40
2021/05/25 07:21:00;;;;;;;3.43;2.10;;;;;;;10.90;73.74;101091.78;5137308;27;20434;-40
2021/05/25 07:23:26;;;;;;;5.77;2.20;;;;;;;10.92;74.42;101097.75;5136827;27;20023;-40
2021/05/25 07:25:51;;;;;;;2.73;1.80;;;;;;;10.89;75.63;101102.81;5137711;27;20064;-40
2021/05/25 07:28:17;;;;;;;3.20;1.73;;;;;;;10.89;75.98;101109.06;5136615;27;20462;-40
2021/05/25 07:30:43;;;;;;;2.50;1.80;;;;;;;10.93;76.05;101104.84;5137369;27;20066;-40
2021/05/25 07:33:09;;;;;;;3.25;2.10;;;;;;;10.93;75.90;101104.00;5136669;27;20111;-40
2021/05/25 07:35:34;;;;;;;3.60;2.33;;;;;;;10.95;76.63;101104.63;5136124;27;20031;-40
2021/05/25 07:37:59;;;;;;;4.97;2.03;;;;;;;11.01;77.35;101111.81;5136639;27;20386;-40
2021/05/25 07:40:25;;;;;;;3.17;2.23;;;;;;;11.02;76.76;101108.88;5136996;27;20075;-40
2021/05/25 07:42:50;;;;;;;5.23;2.87;;;;;;;11.07;75.74;101110.91;5136612;27;20020;-40
2021/05/25 07:45:16;;;;;;;3.93;2.40;;;;;;;11.18;76.06;101104.75;5136801;27;20015;-40
2021/05/25 07:47:42;;;;;;;2.55;2.15;;;;;;;11.38;75.49;101109.88;5136664;27;20491;-40
2021/05/25 07:50:14;;;;;;;2.50;2.10;;;;;;;11.48;74.99;101114.75;5136684;27;20027;-40
2021/05/25 07:52:48;;;;;;;3.88;2.53;;;;;;;11.46;73.80;101114.94;5136743;27;20031;-40
2021/05/25 07:55:14;;;;;;;3.67;2.20;;;;;;;11.47;74.25;101119.34;5137411;27;20496;-40
2021/05/25 07:57:40;;;;;;;6.22;2.35;;;;;;;11.51;75.10;101122.38;5136458;27;20043;-40
2021/05/25 08:00:10;;;;;;;7.15;2.30;;;;;;;11.55;75.91;101126.28;5136961;27;20118;-40
2021/05/25 08:02:35;;;;;;;6.13;2.78;;;;;;;11.50;75.12;101134.28;5136329;27;20091;-40
2021/05/25 08:05:00;;;;;;;4.80;2.37;;;;;;;11.48;74.64;101145.34;5136186;27;20459;-40
2021/05/25 08:07:25;;;;;;;5.13;2.43;;;;;;;11.36;74.10;101130.94;5135745;27;20172;-40
2021/05/25 08:09:51;;;;;;;6.57;2.20;;;;;;;11.30;76.24;101131.84;5136119;27;20060;-40
2021/05/25 08:12:16;;;;;;;5.60;3.80;;;;;;;11.31;75.25;101139.72;5136121;27;20066;-40
2021/05/25 08:14:42;;;;;;;5.07;2.73;;;;;;;11.29;74.81;101133.72;5136253;27;20022;-40
2021/05/25 08:17:24;;;;;;;3.63;2.15;;;;;;;11.35;74.81;101145.53;5135796;27;20054;-40
2021/05/25 08:19:50;;;;;;;3.17;2.15;;;;;;;11.29;73.72;101141.84;5136346;27;20104;-40
2021/05/25 08:22:16;;;;;;;3.60;2.22;;;;;;;11.37;75.70;101151.56;5136203;27;20081;-41
2021/05/25 08:24:42;;;;;;;3.25;2.13;;;;;;;11.38;76.30;101164.03;5135526;27;20106;-40
2021/05/25 08:27:07;;;;;;;6.18;2.53;;;;;;;11.29;75.98;101165.41;5135527;27;20386;-40
2021/05/25 08:29:33;;;;;;;6.40;2.63;;;;;;;11.15;78.37;101170.16;5135910;27;20038;-40
2021/05/25 08:31:59;;;;;;;4.22;3.00;;;;;;;11.08;78.17;101180.25;5135292;27;20072;-39
2021/05/25 08:34:25;;;;;;;4.53;2.17;;;;;;;10.99;78.38;101178.88;5135700;27;20364;-40
2021/05/25 08:36:51;;;;;;;3.88;2.03;;;;;;;10.96;78.79;101192.84;5135632;27;20390;-38
2021/05/25 08:39:16;;;;;;;;;;;;;;;11.09;77.38;101190.81;5135557;27;20463;-39
2021/05/25 08:41:41;;;;;;;3.67;2.00;;;;;;;10.93;79.55;101191.44;5135285;27;19914;-39
2021/05/25 08:44:07;;;;;;;6.43;2.20;;;;;;;10.90;79.49;101194.59;5135530;27;20786;-39
2021/05/25 08:46:33;;;;;;;5.03;1.70;;;;;;;10.86;78.37;101198.78;5134910;27;20062;-41
2021/05/25 08:48:59;;;;;;;4.13;1.70;;;;;;;10.83;78.44;101199.22;5134599;27;20031;-40
2021/05/25 08:51:24;;;;;;;4.72;1.60;;;;;;;10.82;79.22;101192.97;5133887;27;20220;-40
2021/05/25 08:53:50;;;;;;;7.87;2.10;;;;;;;10.81;79.35;101201.34;5133872;27;20035;-40
2021/05/25 08:56:16;;;;;;;3.47;1.80;;;;;;;10.81;79.83;101204.03;5135034;27;20046;-40
2021/05/25 08:58:41;;;;;;;4.97;1.88;;;;;;;10.81;80.68;101198.63;5134755;27;20070;-40
2021/05/25 09:01:07;;;;;;;5.47;2.00;;;;;;;10.86;79.54;101198.78;5135239;27;20076;-40
2021/05/25 09:03:33;;;;;;;4.57;2.27;;;;;;;10.91;81.94;101195.41;5135429;27;20033;-40
2021/05/25 09:06:08;;;;;;;;;;;;;;;11.00;80.94;101197.59;5135005;27;20564;-40
2021/05/25 09:08:34;;;;;;;4.45;2.10;;;;;;;10.98;80.15;101207.81;5134686;27;19912;-40
2021/05/25 09:11:10;;;;;;;5.45;2.13;;;;;;;11.11;79.92;101208.72;5135001;27;20027;-39
2021/05/25 09:13:35;;;;;;;6.38;2.63;;;;;;;11.21;80.16;101209.00;5134914;27;20095;-40
2021/05/25 09:16:03;;;;;;;7.53;2.50;;;;;;;11.22;80.26;101197.94;5135302;27;20459;-40
2021/05/25 09:18:31;;;;;;;4.72;2.15;;;;;;;11.37;80.23;101210.28;5134625;27;20395;-39
2021/05/25 09:21:01;;;;;;;5.97;2.40;;;;;;;11.49;81.01;101203.88;5134873;27;20034;-41
2021/05/25 09:23:32;;;;;;;4.97;2.38;;;;;;;11.50;79.84;101205.53;5134857;27;20076;-40
2021/05/25 09:26:06;;;;;;;6.18;2.47;;;;;;;11.47;79.24;101202.47;5134135;27;20523;-40
2021/05/25 09:28:36;;;;;;;8.57;2.58;;;;;;;11.43;78.59;101198.56;5134920;27;20074;-41
2021/05/25 09:31:03;;;;;;;5.15;1.90;;;;;;;11.32;75.71;101205.53;5134797;27;20035;-40
2021/05/25 09:33:29;;;;;;;5.35;2.03;;;;;;;11.21;75.97;101215.25;5134386;27;20466;-40
2021/05/25 09:35:55;;;;;;;5.53;1.98;;;;;;;11.17;76.09;101221.34;5134715;27;20436;-40
2021/05/25 09:38:28;;;;;;;4.57;2.10;;;;;;;11.20;76.05;101220.91;5134148;27;20065;-40
2021/05/25 09:41:00;;;;;;;7.90;2.30;;;;;;;11.30;76.29;101221.19;5134260;27;20119;-40
2021/05/25 09:43:28;;;;;;;6.53;2.60;;;;;;;11.44;75.53;101221.88;5134098;27;20030;-40
2021/05/25 09:46:09;;;;;;;6.65;2.40;;;;;;;11.69;74.54;101225.28;5134129;27;20023;-40
2021/05/25 09:48:40;;;;;;;8.73;2.90;;;;;;;11.81;73.84;101223.47;5134178;27;20120;-40
2021/05/25 09:51:22;;;;;;;7.68;2.38;;;;;;;11.85;72.87;101235.50;5134529;27;20467;-40
2021/05/25 09:53:49;;;;;;;4.75;2.28;;;;;;;11.81;73.43;101228.06;5134305;27;20051;-40
2021/05/25 09:56:22;;;;;;;9.50;2.67;;;;;;;11.78;72.69;101231.22;5134278;27;20035;-40
2021/05/25 09:58:47;;;;;;;8.35;2.67;;;;;;;11.74;72.65;101233.53;5134139;27;20066;-40
2021/05/25 10:01:13;;;;;;;7.25;2.50;;;;;;;11.82;72.57;101246.00;5138412;27;20054;-41
2021/05/25 10:03:53;;;;;;;6.90;2.13;;;;;;;11.89;71.90;101238.59;5138352;27;20027;-41
2021/05/25 10:06:19;;;;;;;5.50;2.30;;;;;;;12.03;72.46;101247.34;5138667;27;20144;-40
2021/05/25 10:08:45;;;;;;;6.15;2.58;;;;;;;12.17;72.30;101243.41;5138691;27;20470;-40
2021/05/25 10:11:11;;;;;;;;;;;;;;;12.32;72.04;101240.25;5138596;27;20077;-40
2021/05/25 10:13:36;;;;;;;5.88;2.30;;;;;;;12.61;72.01;101242.06;5137913;27;20370;-41
2021/05/25 10:16:03;;;;;;;7.07;2.50;;;;;;;12.83;70.39;101238.75;5138585;27;20035;-41
2021/05/25 10:20:55;;;;;;;6.32;2.40;;;;;;;13.03;70.22;101236.53;5137976;27;20380;-40
2021/05/25 10:23:22;;;;;;;7.60;2.70;;;;;;;13.02;69.00;101229.41;5137673;27;20034;-40
2021/05/25 10:25:51;;;;;;;4.03;1.98;;;;;;;13.29;70.26;101234.38;5137810;27;20455;-40
2021/05/25 10:28:16;;;;;;;4.32;1.98;;;;;;;13.54;66.56;101215.88;5137557;27;20460;-39
2021/05/25 10:30:49;;;;;;;5.83;1.70;;;;;;;13.69;63.65;101233.56;5138131;27;20146;-40
2021/05/25 10:33:17;;;;;;;3.67;1.77;;;;;;;13.45;65.22;101262.69;5137738;27;20042;-40
2021/05/25 10:35:54;;;;;;;4.90;1.13;;;;;;;12.73;63.25;101290.06;5137943;27;20027;-39
2021/05/25 10:38:27;;;;;;;4.55;1.15;;;;;;;12.18;63.03;101283.00;5138051;27;20360;-39
2021/05/25 10:40:55;;;;;;;2.03;0.70;;;;;;;11.80;64.66;101254.28;5137991;27;20019;-39
2021/05/25 10:43:30;;;;;;;4.85;0.98;;;;;;;11.70;65.85;101255.91;5137626;27;20428;-39
2021/05/25 10:46:15;;;;;;;2.50;0.88;;;;;;;11.71;67.14;101257.56;5138140;27;20046;-39
2021/05/25 10:49:10;;;;;;;3.20;1.00;;;;;;;12.06;68.94;101261.28;5137395;27;20035;-39
2021/05/25 10:51:49;;;;;;;4.07;1.23;;;;;;;12.49;68.87;101257.50;5137973;27;20092;-39
2021/05/25 10:54:43;;;;;;;13.50;1.75;;;;;;;12.92;68.42;101256.31;5137713;27;20080;-39
2021/05/25 10:57:29;;;;;;;5.60;1.35;;;;;;;13.15;68.96;101252.78;5137361;27;20049;-39
2021/05/25 11:00:03;;;;;;;7.85;1.70;;;;;;;13.45;70.72;101252.63;5137585;27;20031;-39
2021/05/25 11:02:49;;;;;;;4.55;1.77;;;;;;;13.56;67.47;101267.25;5136983;27;20022;-39
2021/05/25 11:05:26;;;;;;;6.63;1.40;;;;;;;13.44;67.23;101282.78;5137198;27;20019;-39
2021/05/25 11:07:52;;;;;;;6.53;1.40;;;;;;;12.87;67.03;101305.06;5137066;27;20027;-39
2021/05/25 11:10:26;;;;;;;5.20;0.93;;;;;;;12.25;64.83;101291.03;5137295;27;20470;-39
2021/05/25 11:13:14;;;;;;;4.82;0.95;;;;;;;11.89;68.29;101294.66;5137069;27;20084;-39
2021/05/25 11:16:07;;;;;;;2.67;0.80;;;;;;;11.65;70.33;101299.09;5137630;27;20097;-39
2021/05/25 11:25:02;;;;;;;4.13;1.20;;;;;;;11.98;74.98;101290.59;5136889;27;20046;-40
2021/05/25 11:27:30;;;;;;;4.57;1.42;;;;;;;12.65;74.11;101290.44;5135213;27;20035;-40
2021/05/25 11:29:59;;;;;;;6.88;1.40;;;;;;;12.86;71.75;101296.09;5136558;27;20043;-39
2021/05/25 11:32:27;;;;;;;4.82;2.08;;;;;;;13.18;71.91;101294.94;5136998;27;20042;-39
2021/05/25 11:35:00;;;;;;;4.72;1.17;;;;;;;13.32;70.81;101293.63;5136890;27;20027;-40
2021/05/25 11:37:30;;;;;;;3.42;1.20;;;;;;;13.32;70.49;101297.22;5136297;27;20023;-39
2021/05/25 11:39:55;;;;;;;5.95;1.77;;;;;;;13.05;67.65;101315.00;5136261;27;20471;-38
2021/05/25 11:42:23;;;;;;;3.03;1.07;;;;;;;12.63;65.85;101345.72;5136219;27;20037;-39